Friday, January 18, 2019, 1:44 AM GMT
Back to Local

CWKG, Kejimkujik 1, N. S.

Location: , , Canada Lat: 44.433
Local Time: 1:44 AM GMT ( 1:44 GMT) Lon: -65.2
Time Zone: GMT Elev: 416 ft

Show me the last for .
Show Coded

Time T Td Feel RH Dir Speed Gust Alt SLP Vis Weather Sky Remarks
2019-01-18 01:00 3 -1 - 83 300° 1 - - 30.38 0 None
2019-01-18 00:00 5 1 - 81 310° 2 - - 30.36 0 None
2019-01-17 23:00 6 1 - 77 310° 1 - - 30.35 0 None
2019-01-17 22:00 9 1 - 68 310° 2 - - 30.32 0 None
2019-01-17 21:00 12 1 4 61 310° 5 - - 30.31 0 None
2019-01-17 20:00 14 1 3 54 300° 7 - - 30.30 0 None
2019-01-17 19:00 16 1 8 50 330° 5 - - 30.27 0 None
2019-01-17 18:00 16 2 8 52 310° 6 - - 30.24 0 None
2019-01-17 17:00 15 0 4 49 310° 8 - - 30.24 0 None
2019-01-17 16:00 15 4 5 62 330° 7 - - 30.24 0 None
2019-01-17 15:00 15 2 6 57 320° 6 - - 30.24 0 None
2019-01-17 14:00 13 4 2 64 330° 8 - - 30.23 0 1-hr Precip Total: 0.01"
2019-01-17 13:00 12 4 4 70 330° 5 - - 30.19 0 None
2019-01-17 12:00 11 5 3 74 320° 5 - - 30.15 0 None
2019-01-17 11:00 15 6 5 68 330° 7 - - 30.11 0 None
2019-01-17 10:00 15 8 4 72 310° 8 - - 30.08 0 Peak wind: 20 mph (18 kts) from 10° at 34 min
2019-01-17 09:00 17 10 0 72 320° 8 22 - 30.04 0 Peak wind: 21 mph (19 kts) from 310° at 59 min
2019-01-17 08:00 22 14 7 71 330° 8 20 - 29.99 0 Peak wind: 24 mph (21 kts) from 280° at 30 min
2019-01-17 07:00 26 19 13 74 310° 9 17 - 29.95 0 Peak wind: 21 mph (19 kts) from 330° at 37 min
2019-01-17 06:00 28 25 21 90 290° 6 - - 29.90 0 None
2019-01-17 05:00 29 29 21 102 280° 8 - - 29.88 0 Peak wind: 20 mph (18 kts) from 260° at 47 min
1-hr Precip Total: 0.02"
2019-01-17 04:00 29 25 23 82 250° 6 - - 29.87 0 None
2019-01-17 03:00 28 26 23 90 250° 5 - - 29.87 0 None
2019-01-17 02:00 29 27 24 91 260° 5 - - 29.86 0 None

Support USWX by starting your Amazon purchase here.